Time,TemperatureF,DewpointF,PressureIn,WindDirection,WindDirectionDegrees,WindSpeedMPH,WindSpeedGustMPH,Humidity,HourlyPrecipIn,Conditions,Clouds,dailyrainin,SolarRadiationWatts/m^2,SoftwareType,DateUTC
2013-05-12 02:31:00,47.8,44.7,29.98,SW,214,6.0,10.0,89,0.00,CLR,,0.00,0.0,WeatherDisplay:10.37,2013-05-12 01:31:00,
2013-05-12 02:36:00,47.8,45.0,29.98,SW,217,8.0,12.0,90,0.00,CLR,,0.00,0.0,WeatherDisplay:10.37,2013-05-12 01:36:00,
2013-05-12 02:46:00,47.8,45.0,29.98,SW,218,6.0,10.0,90,0.00,CLR,,0.00,0.0,WeatherDisplay:10.37,2013-05-12 01:46:00,
2013-05-12 02:51:00,47.8,45.3,29.98,SSW,205,8.0,14.0,91,0.00,CLR,,0.00,0.0,WeatherDisplay:10.37,2013-05-12 01:51:00,
2013-05-12 02:56:00,47.7,45.2,29.97,SSW,200,6.0,10.0,91,0.00,CLR,,0.00,0.0,WeatherDisplay:10.37,2013-05-12 01:56:00,
2013-05-12 03:01:00,47.6,45.1,29.97,SSW,203,3.0,12.0,91,0.00,CLR,,0.00,0.0,WeatherDisplay:10.37,2013-05-12 02:01:00,
2013-05-12 03:11:00,47.5,45.3,29.97,SSW,201,2.0,9.0,92,0.00,CLR,,0.00,0.0,WeatherDisplay:10.37,2013-05-12 02:11:00,
2013-05-12 03:16:00,47.5,45.3,29.96,SSW,202,5.0,9.0,92,0.00,CLR,,0.00,0.0,WeatherDisplay:10.37,2013-05-12 02:16:00,
2013-05-12 03:21:00,47.5,45.6,29.96,SSW,206,6.0,9.0,93,0.00,CLR,,0.00,0.0,WeatherDisplay:10.37,2013-05-12 02:21:00,
2013-05-12 03:31:00,47.5,45.6,29.96,SW,214,6.0,9.0,93,0.00,CLR,,0.00,0.0,WeatherDisplay:10.37,2013-05-12 02:31:00,
2013-05-12 03:41:00,47.5,45.6,29.95,SSW,209,7.0,12.0,93,0.00,CLR,,0.00,0.0,WeatherDisplay:10.37,2013-05-12 02:41:00,
2013-05-12 03:46:00,47.6,46.0,29.95,SSW,207,8.0,13.0,94,0.00,CLR,,0.00,0.0,WeatherDisplay:10.37,2013-05-12 02:46:00,
2013-05-12 03:51:00,47.6,46.0,29.95,SSW,206,7.0,9.0,94,0.00,CLR,,0.00,0.0,WeatherDisplay:10.37,2013-05-12 02:51:00,
2013-05-12 04:01:00,47.7,46.1,29.94,SSW,209,7.0,17.0,94,0.00,CLR,,0.00,0.0,WeatherDisplay:10.37,2013-05-12 03:01:00,
2013-05-12 04:11:00,47.7,46.1,29.94,SSW,211,7.0,10.0,94,0.00,CLR,,0.00,0.0,WeatherDisplay:10.37,2013-05-12 03:11:00,
2013-05-12 04:16:00,47.8,46.2,29.93,SSW,204,6.0,12.0,94,0.00,CLR,,0.00,0.0,WeatherDisplay:10.37,2013-05-12 03:16:00,
2013-05-12 04:26:00,48.0,46.6,29.93,South,189,6.0,12.0,95,0.00,CLR,,0.00,0.0,WeatherDisplay:10.37,2013-05-12 03:26:00,
2013-05-12 04:31:00,48.1,46.7,29.92,South,191,5.0,10.0,95,0.00,CLR,,0.00,0.0,WeatherDisplay:10.37,2013-05-12 03:31:00,
2013-05-12 04:41:00,48.3,46.9,29.92,South,191,7.0,13.0,95,0.00,CLR,,0.00,0.0,WeatherDisplay:10.37,2013-05-12 03:41:00,
2013-05-12 04:46:00,48.4,47.0,29.92,SSW,198,7.0,13.0,95,0.00,CLR,,0.00,0.0,WeatherDisplay:10.37,2013-05-12 03:46:00,
2013-05-12 04:51:00,48.5,47.1,29.91,SSW,197,9.0,15.0,95,0.00,CLR,,0.00,0.0,WeatherDisplay:10.37,2013-05-12 03:51:00,
2013-05-12 04:56:00,48.6,47.2,29.91,South,190,10.0,16.0,95,0.00,CLR,,0.00,0.0,WeatherDisplay:10.37,2013-05-12 03:56:00,
2013-05-12 05:01:00,48.7,47.3,29.90,SSW,197,12.0,18.0,95,0.00,CLR,,0.00,0.0,WeatherDisplay:10.37,2013-05-12 04:01:00,
2013-05-12 05:11:00,48.8,47.4,29.90,SSW,212,12.0,21.0,95,0.00,RA,,0.01,0.0,WeatherDisplay:10.37,2013-05-12 04:11:00,
2013-05-12 05:16:00,48.9,47.5,29.90,SSW,212,10.0,20.0,95,0.00,,,0.01,0.0,WeatherDisplay:10.37,2013-05-12 04:16:00,
2013-05-12 05:21:00,48.9,47.5,29.89,SSW,212,12.0,20.0,95,0.00,CLR,,0.01,0.0,WeatherDisplay:10.37,2013-05-12 04:21:00,
2013-05-12 05:31:00,49.0,47.6,29.89,SSW,207,13.0,21.0,95,0.00,OVC,,0.01,0.0,WeatherDisplay:10.37,2013-05-12 04:31:00,
2013-05-12 05:41:00,49.2,48.1,29.89,SSW,213,12.0,18.0,96,0.00,OVC,,0.01,0.0,WeatherDisplay:10.37,2013-05-12 04:41:00,
2013-05-12 05:46:00,49.2,47.8,29.89,SSW,206,13.0,20.0,95,0.00,OVC,,0.01,0.0,WeatherDisplay:10.37,2013-05-12 04:46:00,
2013-05-12 05:51:00,49.3,47.9,29.88,SSW,206,13.0,20.0,95,0.00,OVC,,0.01,0.0,WeatherDisplay:10.37,2013-05-12 04:51:00,
2013-05-12 05:56:00,49.4,48.0,29.88,SW,215,13.0,21.0,95,0.00,OVC,,0.01,5.0,WeatherDisplay:10.37,2013-05-12 04:56:00,
2013-05-12 06:01:00,49.5,48.1,29.88,SW,219,13.0,20.0,95,0.00,BKN,,0.01,9.0,WeatherDisplay:10.37,2013-05-12 05:01:00,
2013-05-12 06:11:00,49.5,48.4,29.88,SW,219,12.0,18.0,96,0.00,BKN,,0.01,12.0,WeatherDisplay:10.37,2013-05-12 05:11:00,
2013-05-12 06:16:00,49.6,48.5,29.88,SSW,212,10.0,20.0,96,0.00,BKN,,0.01,12.0,WeatherDisplay:10.37,2013-05-12 05:16:00,
2013-05-12 06:21:00,49.6,48.5,29.88,SSW,213,12.0,20.0,96,0.00,BKN,,0.01,12.0,WeatherDisplay:10.37,2013-05-12 05:21:00,
2013-05-12 06:31:00,49.8,48.4,29.87,SSW,208,9.0,20.0,95,0.00,RA,,0.02,7.0,WeatherDisplay:10.37,2013-05-12 05:31:00,
2013-05-12 06:41:00,49.8,48.4,29.87,SW,216,12.0,20.0,95,0.01,RA,,0.02,14.0,WeatherDisplay:10.37,2013-05-12 05:41:00,
2013-05-12 06:46:00,49.9,48.5,29.87,SSW,211,12.0,18.0,95,0.00,RA,,0.02,18.0,WeatherDisplay:10.37,2013-05-12 05:46:00,
2013-05-12 06:51:00,49.9,48.5,29.87,SW,216,14.0,22.0,95,0.01,RA,,0.03,19.0,WeatherDisplay:10.37,2013-05-12 05:51:00,
2013-05-12 07:01:00,50.0,48.6,29.87,SW,214,12.0,20.0,95,0.00,BKN,,0.03,35.0,WeatherDisplay:10.37,2013-05-12 06:01:00,
2013-05-12 07:11:00,50.0,48.7,29.87,SW,219,13.0,22.0,95,0.00,BKN,,0.03,37.0,WeatherDisplay:10.37,2013-05-12 06:11:00,
2013-05-12 07:16:00,50.1,48.7,29.87,SW,221,12.0,21.0,95,0.00,BKN,,0.03,30.0,WeatherDisplay:10.37,2013-05-12 06:16:00,
2013-05-12 07:21:00,50.1,48.7,29.87,SW,218,10.0,21.0,95,0.00,BKN,,0.03,47.0,WeatherDisplay:10.37,2013-05-12 06:21:00,
2013-05-12 07:31:00,50.2,49.1,29.87,SSW,209,12.0,20.0,96,0.00,BKN,,0.03,54.0,WeatherDisplay:10.37,2013-05-12 06:31:00,
2013-05-12 07:41:00,50.2,49.1,29.87,SW,217,10.0,16.0,96,0.00,BKN,,0.03,56.0,WeatherDisplay:10.37,2013-05-12 06:41:00,
2013-05-12 07:46:00,50.3,49.2,29.87,SSW,212,14.0,20.0,96,0.00,BKN,,0.03,65.0,WeatherDisplay:10.37,2013-05-12 06:46:00,
2013-05-12 07:56:00,50.4,49.0,29.87,SW,217,13.0,18.0,95,0.00,BKN,,0.03,53.0,WeatherDisplay:10.37,2013-05-12 06:56:00,
2013-05-12 08:01:00,50.4,49.0,29.87,SW,216,12.0,23.0,95,0.00,BKN,,0.03,58.0,WeatherDisplay:10.37,2013-05-12 07:01:00,
2013-05-12 08:10:00,50.6,49.2,29.87,SW,215,15.0,21.0,95,0.00,RA,,0.04,109.0,WeatherDisplay:10.37,2013-05-12 07:10:00,
2013-05-12 08:15:00,50.7,49.3,29.87,SSW,213,14.0,18.0,95,0.00,BKN,,0.04,102.0,WeatherDisplay:10.37,2013-05-12 07:15:00,
2013-05-12 08:20:00,50.7,49.6,29.87,SW,216,13.0,22.0,96,0.00,BKN,,0.04,79.0,WeatherDisplay:10.37,2013-05-12 07:20:00,
2013-05-12 08:30:00,50.8,49.7,29.87,SW,220,12.0,17.0,96,0.00,BKN,,0.04,113.0,WeatherDisplay:10.37,2013-05-12 07:30:00,
2013-05-12 08:40:00,51.0,49.9,29.87,SW,217,13.0,21.0,96,0.00,BKN,,0.04,128.0,WeatherDisplay:10.37,2013-05-12 07:40:00,
2013-05-12 08:45:00,51.0,49.9,29.86,SW,216,12.0,20.0,96,0.00,BKN,,0.04,105.0,WeatherDisplay:10.37,2013-05-12 07:45:00,
2013-05-12 08:50:00,51.1,50.0,29.86,SW,222,12.0,17.0,96,0.00,BKN,,0.04,109.0,WeatherDisplay:10.37,2013-05-12 07:50:00,
2013-05-12 09:00:00,51.3,50.2,29.87,SW,225,15.0,21.0,96,0.00,BKN,,0.04,171.0,WeatherDisplay:10.37,2013-05-12 08:00:00,
2013-05-12 09:10:00,51.3,49.9,29.86,WSW,238,9.0,20.0,95,0.01,RA,,0.05,98.0,WeatherDisplay:10.37,2013-05-12 08:10:00,
2013-05-12 09:15:00,51.3,49.9,29.86,SW,233,14.0,21.0,95,0.00,RA,,0.05,104.0,WeatherDisplay:10.37,2013-05-12 08:15:00,
2013-05-12 09:20:00,51.2,49.8,29.86,SW,230,13.0,21.0,95,0.00,BKN,,0.05,120.0,WeatherDisplay:10.37,2013-05-12 08:20:00,
2013-05-12 09:30:00,51.4,50.3,29.86,WSW,241,15.0,24.0,96,0.00,BKN,,0.05,223.0,WeatherDisplay:10.37,2013-05-12 08:30:00,
2013-05-12 09:40:00,51.5,50.1,29.86,WSW,242,17.0,23.0,95,0.00,BKN,,0.05,257.0,WeatherDisplay:10.37,2013-05-12 08:40:00,
2013-05-12 09:45:00,51.4,50.0,29.86,WSW,243,18.0,24.0,95,0.00,BKN,,0.05,373.0,WeatherDisplay:10.37,2013-05-12 08:45:00,
2013-05-12 09:50:00,51.5,50.1,29.86,WSW,239,17.0,22.0,95,0.00,SCT,,0.05,174.0,WeatherDisplay:10.37,2013-05-12 08:50:00,
2013-05-12 10:00:00,51.2,49.9,29.86,SW,234,14.0,22.0,95,0.00,BKN,,0.05,162.0,WeatherDisplay:10.37,2013-05-12 09:00:00,
2013-05-12 10:10:00,51.1,49.7,29.86,SW,227,14.0,21.0,95,0.01,RA,,0.05,134.0,WeatherDisplay:10.37,2013-05-12 09:10:00,
2013-05-12 10:15:00,51.1,49.7,29.86,SW,230,16.0,24.0,95,0.00,RA,,0.05,162.0,WeatherDisplay:10.37,2013-05-12 09:15:00,
2013-05-12 10:20:00,51.2,49.9,29.86,SW,236,12.0,20.0,95,0.00,BKN,,0.05,283.0,WeatherDisplay:10.37,2013-05-12 09:20:00,
2013-05-12 10:30:00,51.5,50.1,29.86,WSW,240,17.0,26.0,95,0.00,BKN,,0.05,250.0,WeatherDisplay:10.37,2013-05-12 09:30:00,
2013-05-12 10:40:00,52.4,51.0,29.86,SW,234,15.0,24.0,95,0.00,SCT,,0.05,559.0,WeatherDisplay:10.37,2013-05-12 09:40:00,
2013-05-12 10:45:00,52.5,51.1,29.86,SW,229,20.0,26.0,95,0.00,SCT,,0.05,406.0,WeatherDisplay:10.37,2013-05-12 09:45:00,
2013-05-12 10:50:00,52.4,50.7,29.86,SW,226,14.0,26.0,94,0.00,SCT,,0.05,330.0,WeatherDisplay:10.37,2013-05-12 09:50:00,
2013-05-12 10:55:00,52.4,50.7,29.86,SW,220,16.0,27.0,94,0.00,BKN,,0.05,185.0,WeatherDisplay:10.37,2013-05-12 09:55:00,
2013-05-12 11:00:00,52.1,50.5,29.86,SW,234,16.0,24.0,94,0.00,BKN,,0.05,200.0,WeatherDisplay:10.37,2013-05-12 10:00:00,
2013-05-12 11:10:00,52.1,50.1,29.86,WSW,237,16.0,28.0,93,0.00,BKN,,0.05,213.0,WeatherDisplay:10.37,2013-05-12 10:10:00,
2013-05-12 11:15:00,52.3,50.3,29.86,WSW,237,15.0,23.0,93,0.00,BKN,,0.05,364.0,WeatherDisplay:10.37,2013-05-12 10:15:00,
2013-05-12 11:20:00,52.4,50.4,29.86,WSW,239,16.0,25.0,93,0.00,BKN,,0.05,267.0,WeatherDisplay:10.37,2013-05-12 10:20:00,
2013-05-12 11:25:00,52.2,50.5,29.86,SW,233,13.0,20.0,94,0.00,BKN,,0.05,396.0,WeatherDisplay:10.37,2013-05-12 10:25:00,
2013-05-12 11:30:00,52.3,50.6,29.86,WSW,240,14.0,23.0,94,0.00,BKN,,0.05,380.0,WeatherDisplay:10.37,2013-05-12 10:30:00,
2013-05-12 11:40:00,52.0,50.3,29.86,SW,226,16.0,23.0,94,0.00,BKN,,0.05,174.0,WeatherDisplay:10.37,2013-05-12 10:40:00,
2013-05-12 11:45:00,51.7,50.0,29.86,SW,230,16.0,24.0,94,0.00,BKN,,0.05,142.0,WeatherDisplay:10.37,2013-05-12 10:45:00,
2013-05-12 11:50:00,51.8,50.1,29.86,WSW,237,12.0,20.0,94,0.00,BKN,,0.05,178.0,WeatherDisplay:10.37,2013-05-12 10:50:00,
2013-05-12 12:00:00,51.6,49.9,29.86,WSW,237,14.0,20.0,94,0.00,BKN,,0.05,165.0,WeatherDisplay:10.37,2013-05-12 11:00:00,
2013-05-12 12:10:00,51.9,50.3,29.85,SW,232,15.0,23.0,94,0.00,BKN,,0.05,195.0,WeatherDisplay:10.37,2013-05-12 11:10:00,
2013-05-12 12:15:00,52.1,50.1,29.85,SW,233,15.0,25.0,93,0.00,BKN,,0.05,158.0,WeatherDisplay:10.37,2013-05-12 11:15:00,
2013-05-12 12:20:00,52.2,50.3,29.85,WSW,238,17.0,28.0,93,0.00,BKN,,0.05,142.0,WeatherDisplay:10.37,2013-05-12 11:20:00,
2013-05-12 12:30:00,52.3,50.0,29.86,WSW,239,18.0,25.0,92,0.00,BKN,,0.05,206.0,WeatherDisplay:10.37,2013-05-12 11:30:00,
2013-05-12 12:35:00,52.4,50.1,29.85,SW,234,18.0,27.0,92,0.00,BKN,,0.05,206.0,WeatherDisplay:10.37,2013-05-12 11:35:00,
2013-05-12 12:45:00,52.7,50.4,29.85,SW,236,14.0,23.0,92,0.00,BKN,,0.05,202.0,WeatherDisplay:10.37,2013-05-12 11:45:00,
2013-05-12 12:50:00,52.7,50.4,29.85,WSW,246,14.0,26.0,92,0.00,BKN,,0.05,211.0,WeatherDisplay:10.37,2013-05-12 11:50:00,
2013-05-12 13:00:00,52.6,50.0,29.86,SW,236,15.0,27.0,91,0.00,BKN,,0.05,181.0,WeatherDisplay:10.37,2013-05-12 12:00:00,
2013-05-12 13:10:00,52.9,50.3,29.85,WSW,240,14.0,24.0,91,0.00,BKN,,0.05,336.0,WeatherDisplay:10.37,2013-05-12 12:10:00,
2013-05-12 13:20:00,53.0,50.5,29.86,SW,234,14.0,25.0,91,0.00,BKN,,0.05,202.0,WeatherDisplay:10.37,2013-05-12 12:20:00,
2013-05-12 13:25:00,52.8,50.0,29.85,WSW,241,16.0,21.0,90,0.00,BKN,,0.05,123.0,WeatherDisplay:10.37,2013-05-12 12:25:00,
2013-05-12 13:30:00,52.7,50.1,29.85,SW,235,15.0,24.0,91,0.00,BKN,,0.05,216.0,WeatherDisplay:10.37,2013-05-12 12:30:00,
2013-05-12 13:40:00,52.6,50.0,29.85,SW,236,17.0,25.0,91,0.00,BKN,,0.05,192.0,WeatherDisplay:10.37,2013-05-12 12:40:00,
2013-05-12 13:45:00,53.1,50.9,29.85,WSW,240,16.0,25.0,92,0.00,BKN,,0.05,425.0,WeatherDisplay:10.37,2013-05-12 12:45:00,
2013-05-12 13:55:00,54.0,51.1,29.85,WSW,239,15.0,24.0,90,0.00,BKN,,0.05,339.0,WeatherDisplay:10.37,2013-05-12 12:55:00,
2013-05-12 14:00:00,54.0,50.8,29.85,WSW,247,13.0,25.0,89,0.00,BKN,,0.05,432.0,WeatherDisplay:10.37,2013-05-12 13:00:00,
2013-05-12 14:10:00,54.1,50.9,29.86,WSW,239,13.0,20.0,89,0.00,BKN,,0.05,257.0,WeatherDisplay:10.37,2013-05-12 13:10:00,
2013-05-12 14:15:00,54.0,50.8,29.86,WSW,244,13.0,23.0,89,0.00,BKN,,0.05,243.0,WeatherDisplay:10.37,2013-05-12 13:15:00,
2013-05-12 14:20:00,53.9,50.7,29.86,WSW,239,13.0,24.0,89,0.00,BKN,,0.05,612.0,WeatherDisplay:10.37,2013-05-12 13:20:00,
2013-05-12 14:30:00,54.8,51.0,29.86,WSW,242,12.0,21.0,87,0.00,SCT,,0.05,455.0,WeatherDisplay:10.37,2013-05-12 13:30:00,
2013-05-12 14:40:00,54.7,50.6,29.86,SW,234,14.0,24.0,86,0.00,BKN,,0.05,431.0,WeatherDisplay:10.37,2013-05-12 13:40:00,
2013-05-12 14:45:00,54.8,50.4,29.85,SW,234,16.0,24.0,85,0.00,BKN,,0.05,427.0,WeatherDisplay:10.37,2013-05-12 13:45:00,
2013-05-12 14:50:00,54.8,50.1,29.85,WSW,241,17.0,24.0,84,0.00,SCT,,0.05,541.0,WeatherDisplay:10.37,2013-05-12 13:50:00,
2013-05-12 15:00:00,55.0,50.6,29.85,WSW,246,13.0,22.0,85,0.00,SCT,,0.05,415.0,WeatherDisplay:10.37,2013-05-12 14:00:00,
2013-05-12 15:10:00,54.5,50.1,29.85,WSW,237,12.0,23.0,85,0.00,BKN,,0.05,315.0,WeatherDisplay:10.37,2013-05-12 14:10:00,
2013-05-12 15:15:00,54.3,50.2,29.85,WSW,244,15.0,23.0,86,0.00,BKN,,0.05,366.0,WeatherDisplay:10.37,2013-05-12 14:15:00,
2013-05-12 15:20:00,54.2,50.1,29.85,WSW,240,15.0,23.0,86,0.00,BKN,,0.05,223.0,WeatherDisplay:10.37,2013-05-12 14:20:00,
2013-05-12 15:30:00,53.6,49.8,29.85,SW,234,16.0,23.0,87,0.00,BKN,,0.05,348.0,WeatherDisplay:10.37,2013-05-12 14:30:00,
2013-05-12 15:40:00,53.3,49.9,29.86,WSW,244,14.0,24.0,88,0.00,BKN,,0.05,151.0,WeatherDisplay:10.37,2013-05-12 14:40:00,
2013-05-12 15:45:00,53.0,49.8,29.85,WSW,250,15.0,27.0,89,0.01,RA,,0.06,425.0,WeatherDisplay:10.37,2013-05-12 14:45:00,
2013-05-12 15:55:00,53.5,49.7,29.85,WSW,237,15.0,25.0,87,0.00,SCT,,0.06,295.0,WeatherDisplay:10.37,2013-05-12 14:55:00,
2013-05-12 16:00:00,54.1,49.7,29.85,WSW,251,16.0,25.0,85,0.00,FEW,,0.06,833.0,WeatherDisplay:10.37,2013-05-12 15:00:00,
2013-05-12 16:10:00,55.1,49.4,29.85,SW,235,16.0,28.0,81,0.00,CLR,,0.06,663.0,WeatherDisplay:10.37,2013-05-12 15:10:00,
2013-05-12 16:15:00,55.0,49.6,29.85,WSW,243,16.0,25.0,82,0.00,CLR,,0.06,244.0,WeatherDisplay:10.37,2013-05-12 15:15:00,
2013-05-12 16:20:00,54.6,48.9,29.85,WSW,245,15.0,24.0,81,0.00,SCT,,0.06,283.0,WeatherDisplay:10.37,2013-05-12 15:20:00,
2013-05-12 16:30:00,54.2,48.8,29.85,WSW,256,12.0,21.0,82,0.00,BKN,,0.06,237.0,WeatherDisplay:10.37,2013-05-12 15:30:00,
2013-05-12 16:40:00,53.7,48.0,29.85,WSW,244,14.0,23.0,81,0.00,BKN,,0.06,237.0,WeatherDisplay:10.37,2013-05-12 15:40:00,
2013-05-12 16:45:00,53.6,48.2,29.85,WSW,243,17.0,24.0,82,0.00,BKN,,0.06,287.0,WeatherDisplay:10.37,2013-05-12 15:45:00,
2013-05-12 16:50:00,53.5,48.2,29.85,WSW,241,15.0,20.0,82,0.00,BKN,,0.06,218.0,WeatherDisplay:10.37,2013-05-12 15:50:00,
2013-05-12 17:00:00,53.5,48.5,29.85,WSW,249,9.0,24.0,83,0.00,BKN,,0.06,211.0,WeatherDisplay:10.37,2013-05-12 16:00:00,
2013-05-12 17:10:00,53.3,48.3,29.86,WSW,242,15.0,21.0,83,0.00,BKN,,0.06,93.0,WeatherDisplay:10.37,2013-05-12 16:10:00,
2013-05-12 17:20:00,52.3,47.3,29.86,WSW,249,10.0,17.0,83,0.00,BKN,,0.06,146.0,WeatherDisplay:10.37,2013-05-12 16:20:00,
2013-05-12 17:30:00,51.7,47.3,29.86,WSW,248,12.0,20.0,85,0.00,BKN,,0.06,269.0,WeatherDisplay:10.37,2013-05-12 16:30:00,
2013-05-12 17:40:00,52.0,47.3,29.86,WSW,245,12.0,18.0,84,0.00,BKN,,0.06,199.0,WeatherDisplay:10.37,2013-05-12 16:40:00,
2013-05-12 17:45:00,52.2,47.2,29.86,WSW,247,13.0,21.0,83,0.00,BKN,,0.06,213.0,WeatherDisplay:10.37,2013-05-12 16:45:00,
2013-05-12 17:50:00,52.3,47.3,29.86,WSW,246,8.0,16.0,83,0.00,BKN,,0.06,162.0,WeatherDisplay:10.37,2013-05-12 16:50:00,
2013-05-12 18:00:00,52.4,46.4,29.87,WSW,248,16.0,24.0,80,0.00,BKN,,0.06,146.0,WeatherDisplay:10.37,2013-05-12 17:00:00,
2013-05-12 18:10:00,52.1,45.1,29.87,West,262,12.0,23.0,77,0.00,BKN,,0.06,248.0,WeatherDisplay:10.37,2013-05-12 17:10:00,
2013-05-12 18:15:00,52.2,45.9,29.88,WSW,258,10.0,16.0,79,0.00,BKN,,0.06,204.0,WeatherDisplay:10.37,2013-05-12 17:15:00,
2013-05-12 18:20:00,52.5,45.5,29.87,WSW,254,13.0,21.0,77,0.00,BKN,,0.06,174.0,WeatherDisplay:10.37,2013-05-12 17:20:00,
2013-05-12 18:30:00,52.3,45.3,29.88,WSW,254,9.0,20.0,77,0.00,BKN,,0.06,141.0,WeatherDisplay:10.37,2013-05-12 17:30:00,
2013-05-12 18:40:00,51.8,44.8,29.88,WSW,256,9.0,18.0,77,0.00,BKN,,0.06,93.0,WeatherDisplay:10.37,2013-05-12 17:40:00,
2013-05-12 18:45:00,51.5,44.5,29.87,WSW,258,8.0,17.0,77,0.00,BKN,,0.06,76.0,WeatherDisplay:10.37,2013-05-12 17:45:00,
2013-05-12 18:50:00,51.3,44.0,29.87,WSW,257,13.0,21.0,76,0.00,BKN,,0.06,107.0,WeatherDisplay:10.37,2013-05-12 17:50:00,
2013-05-12 18:55:00,51.3,44.3,29.88,West,263,9.0,16.0,77,0.00,BKN,,0.06,132.0,WeatherDisplay:10.37,2013-05-12 17:55:00,
2013-05-12 19:00:00,51.0,43.7,29.88,West,261,9.0,18.0,76,0.00,BKN,,0.06,121.0,WeatherDisplay:10.37,2013-05-12 18:00:00,
2013-05-12 19:10:00,51.0,44.1,29.88,West,263,9.0,14.0,77,0.00,SCT,,0.06,163.0,WeatherDisplay:10.37,2013-05-12 18:10:00,
2013-05-12 19:15:00,51.3,43.3,29.88,WSW,254,12.0,17.0,74,0.00,SCT,,0.06,209.0,WeatherDisplay:10.37,2013-05-12 18:15:00,
2013-05-12 19:20:00,51.2,42.1,29.88,WSW,255,9.0,20.0,71,0.00,SCT,,0.06,77.0,WeatherDisplay:10.37,2013-05-12 18:20:00,
2013-05-12 19:30:00,50.4,41.0,29.89,West,261,10.0,24.0,70,0.00,BKN,,0.06,142.0,WeatherDisplay:10.37,2013-05-12 18:30:00,
2013-05-12 19:40:00,50.2,41.5,29.88,WSW,255,9.0,16.0,72,0.00,SCT,,0.06,176.0,WeatherDisplay:10.37,2013-05-12 18:40:00,
2013-05-12 19:45:00,50.4,41.7,29.88,WSW,247,12.0,22.0,72,0.00,SCT,,0.06,114.0,WeatherDisplay:10.37,2013-05-12 18:45:00,
2013-05-12 19:50:00,50.1,40.7,29.88,WSW,250,13.0,21.0,70,0.00,SCT,,0.06,81.0,WeatherDisplay:10.37,2013-05-12 18:50:00,
2013-05-12 20:00:00,49.3,40.7,29.88,WSW,255,13.0,23.0,72,0.00,BKN,,0.06,44.0,WeatherDisplay:10.37,2013-05-12 19:00:00,
2013-05-12 20:10:00,48.9,41.3,29.88,WSW,251,12.0,22.0,75,0.00,BKN,,0.06,21.0,WeatherDisplay:10.37,2013-05-12 19:10:00,
2013-05-12 20:15:00,48.8,41.6,29.89,WSW,255,10.0,18.0,76,0.00,BKN,,0.06,33.0,WeatherDisplay:10.37,2013-05-12 19:15:00,
2013-05-12 20:20:00,48.7,42.4,29.89,West,263,9.0,18.0,79,0.00,BKN,,0.06,32.0,WeatherDisplay:10.37,2013-05-12 19:20:00,
2013-05-12 20:26:00,48.0,41.5,29.89,West,259,10.0,20.0,78,0.00,BKN,,0.06,26.0,WeatherDisplay:10.37,2013-05-12 19:26:00,
2013-05-12 20:35:00,47.3,40.8,29.89,West,261,12.0,20.0,78,0.00,FEW,,0.06,56.0,WeatherDisplay:10.37,2013-05-12 19:35:00,
2013-05-12 20:40:00,47.0,40.5,29.89,WSW,254,8.0,13.0,78,0.00,BKN,,0.06,32.0,WeatherDisplay:10.37,2013-05-12 19:40:00,
2013-05-12 20:45:00,46.8,40.0,29.89,WSW,245,10.0,16.0,77,0.00,BKN,,0.06,25.0,WeatherDisplay:10.37,2013-05-12 19:45:00,
2013-05-12 20:50:00,46.6,40.1,29.89,WSW,239,8.0,14.0,78,0.00,BKN,,0.06,23.0,WeatherDisplay:10.37,2013-05-12 19:50:00,
2013-05-12 21:00:00,46.2,39.7,29.90,WSW,242,8.0,13.0,78,0.00,BKN,,0.06,12.0,WeatherDisplay:10.37,2013-05-12 20:00:00,
2013-05-12 21:10:00,46.1,39.3,29.90,WSW,244,9.0,15.0,77,0.00,BKN,,0.06,9.0,WeatherDisplay:10.37,2013-05-12 20:10:00,
2013-05-12 21:20:00,46.1,39.6,29.90,WSW,248,10.0,15.0,78,0.00,OVC,,0.06,0.0,WeatherDisplay:10.37,2013-05-12 20:20:00,
2013-05-12 21:30:00,46.3,40.5,29.90,WSW,251,7.0,15.0,80,0.00,OVC,,0.06,0.0,WeatherDisplay:10.37,2013-05-12 20:30:00,
2013-05-12 21:40:00,46.0,39.6,29.90,WSW,258,9.0,17.0,78,0.00,OVC,,0.06,0.0,WeatherDisplay:10.37,2013-05-12 20:40:00,
2013-05-12 21:45:00,45.8,39.4,29.91,WSW,254,9.0,17.0,78,0.00,OVC,,0.06,0.0,WeatherDisplay:10.37,2013-05-12 20:45:00,
2013-05-12 21:50:00,45.6,39.5,29.91,WSW,250,10.0,20.0,79,0.00,OVC,,0.06,0.0,WeatherDisplay:10.37,2013-05-12 20:50:00,
2013-05-12 21:55:00,45.3,39.5,29.91,WSW,256,7.0,15.0,80,0.00,OVC,,0.06,0.0,WeatherDisplay:10.37,2013-05-12 20:55:00,
2013-05-12 22:00:00,45.0,39.5,29.91,WSW,254,9.0,14.0,81,0.00,CLR,,0.06,0.0,WeatherDisplay:10.37,2013-05-12 21:00:00,
2013-05-12 22:10:00,44.8,39.6,29.91,WSW,250,8.0,12.0,82,0.00,CLR,,0.06,0.0,WeatherDisplay:10.37,2013-05-12 21:10:00,
2013-05-12 22:15:00,44.7,39.5,29.91,WSW,243,6.0,10.0,82,0.00,CLR,,0.06,0.0,WeatherDisplay:10.37,2013-05-12 21:15:00,
2013-05-12 22:25:00,44.5,40.0,29.90,SW,236,5.0,9.0,84,0.00,CLR,,0.06,0.0,WeatherDisplay:10.37,2013-05-12 21:25:00,
2013-05-12 22:30:00,44.6,40.0,29.91,SW,235,5.0,8.0,84,0.00,CLR,,0.06,0.0,WeatherDisplay:10.37,2013-05-12 21:30:00,
2013-05-12 22:35:00,44.6,40.4,29.91,WSW,252,9.0,15.0,85,0.00,CLR,,0.06,0.0,WeatherDisplay:10.37,2013-05-12 21:35:00,
2013-05-12 22:40:00,44.6,40.7,29.91,WSW,257,10.0,17.0,86,0.00,CLR,,0.06,0.0,WeatherDisplay:10.37,2013-05-12 21:40:00,
2013-05-12 22:45:00,44.4,40.5,29.91,West,261,9.0,15.0,86,0.00,CLR,,0.06,0.0,WeatherDisplay:10.37,2013-05-12 21:45:00,
2013-05-12 22:50:00,44.2,40.2,29.91,West,261,6.0,12.0,86,0.00,CLR,,0.06,0.0,WeatherDisplay:10.37,2013-05-12 21:50:00,
2013-05-12 22:55:00,44.0,40.0,29.91,West,259,6.0,12.0,86,0.00,CLR,,0.06,0.0,WeatherDisplay:10.37,2013-05-12 21:55:00,
2013-05-12 23:00:00,43.7,39.8,29.90,WSW,252,7.0,12.0,86,0.00,CLR,,0.06,0.0,WeatherDisplay:10.37,2013-05-12 22:00:00,
2013-05-12 23:10:00,43.4,39.2,29.90,WSW,241,6.0,12.0,85,0.00,CLR,,0.06,0.0,WeatherDisplay:10.37,2013-05-12 22:10:00,
2013-05-12 23:15:00,43.4,39.5,29.90,WSW,238,5.0,12.0,86,0.00,CLR,,0.06,0.0,WeatherDisplay:10.37,2013-05-12 22:15:00,
2013-05-12 23:25:00,43.3,39.4,29.90,SW,229,7.0,12.0,86,0.00,CLR,,0.06,0.0,WeatherDisplay:10.37,2013-05-12 22:25:00,
2013-05-12 23:30:00,43.4,39.5,29.89,SW,222,7.0,12.0,86,0.00,CLR,,0.06,0.0,WeatherDisplay:10.37,2013-05-12 22:30:00,
2013-05-12 23:40:00,43.6,39.4,29.89,SW,229,6.0,14.0,85,0.00,CLR,,0.06,0.0,WeatherDisplay:10.37,2013-05-12 22:40:00,
2013-05-12 23:45:00,43.7,39.5,29.89,SW,225,8.0,12.0,85,0.00,CLR,,0.06,0.0,WeatherDisplay:10.37,2013-05-12 22:45:00,
2013-05-12 23:55:00,44.3,39.4,29.89,WSW,241,10.0,18.0,83,0.00,CLR,,0.06,0.0,WeatherDisplay:10.37,2013-05-12 22:55:00,